createdAt,value
2022-10-22T00:01:11.539Z,98591.00
2022-10-22T00:03:38.167Z,98593.34
2022-10-22T00:06:06.742Z,98595.66
2022-10-22T00:08:33.398Z,98615.16
2022-10-22T00:11:00.149Z,98619.06
2022-10-22T00:13:26.813Z,98618.63
2022-10-22T00:15:53.382Z,98633.09
2022-10-22T00:18:19.974Z,98632.31
2022-10-22T00:20:46.574Z,98624.09
2022-10-22T00:23:14.767Z,98631.16
2022-10-22T00:25:41.387Z,98626.03
2022-10-22T00:28:08.004Z,98632.31
2022-10-22T00:30:34.499Z,98637.38
2022-10-22T00:33:01.086Z,98637.38
2022-10-22T00:35:27.579Z,98647.22
2022-10-22T00:37:54.123Z,98648.03
2022-10-22T00:40:22.046Z,98653.50
2022-10-22T00:42:48.600Z,98661.00
2022-10-22T00:45:19.169Z,98664.53
2022-10-22T00:47:51.628Z,98662.63
2022-10-22T00:50:23.566Z,98659.09
2022-10-22T00:52:50.612Z,98663.78
2022-10-22T00:55:18.337Z,98653.63
2022-10-22T00:57:47.254Z,98661.47
2022-10-22T01:00:15.042Z,98658.72
2022-10-22T01:02:42.211Z,98653.63
2022-10-22T01:05:09.717Z,98647.34
2022-10-22T01:07:41.828Z,98632.47
2022-10-22T01:10:16.098Z,98626.19
2022-10-22T01:12:51.351Z,98623.44
2022-10-22T01:15:24.559Z,98627.78
2022-10-22T01:17:59.347Z,98620.72
2022-10-22T01:20:53.313Z,98610.56
2022-10-22T01:23:50.444Z,98610.91
2022-10-22T01:26:27.420Z,98605.00
2022-10-22T01:29:02.505Z,98606.59
2022-10-22T01:31:34.749Z,98608.53
2022-10-22T01:34:03.344Z,98608.53
2022-10-22T01:36:32.433Z,98596.78
2022-10-22T01:39:02.145Z,98598.31
2022-10-22T01:41:29.173Z,98602.94
2022-10-22T01:43:55.888Z,98604.09
2022-10-22T01:46:25.523Z,98602.88
2022-10-22T01:49:10.553Z,98609.84
2022-10-22T01:51:49.394Z,98610.25
2022-10-22T01:54:26.023Z,98616.88
2022-10-22T01:57:04.605Z,98616.44
2022-10-22T01:59:39.378Z,98613.28
2022-10-22T02:02:13.267Z,98603.84
2022-10-22T02:04:44.627Z,98617.91
2022-10-22T02:07:15.358Z,98617.91
2022-10-22T02:09:44.682Z,98618.69
2022-10-22T02:12:13.437Z,98617.47
2022-10-22T02:14:43.447Z,98617.81
2022-10-22T02:17:16.222Z,98609.69
2022-10-22T02:19:48.283Z,98618.25
2022-10-22T02:22:14.882Z,98611.63
2022-10-22T02:24:41.608Z,98613.97
2022-10-22T02:27:15.658Z,98609.31
2022-10-22T02:29:47.429Z,98609.75
2022-10-22T02:32:20.746Z,98619.47
2022-10-22T02:34:49.821Z,98608.91
2022-10-22T02:37:18.303Z,98610.84
2022-10-22T02:39:45.379Z,98619.41
2022-10-22T02:42:12.493Z,98613.16
2022-10-22T02:44:39.103Z,98612.34
2022-10-22T02:47:05.655Z,98602.56
2022-10-22T02:49:33.663Z,98604.94
2022-10-22T02:52:00.247Z,98616.25
2022-10-22T02:54:26.852Z,98631.06
2022-10-22T02:56:53.385Z,98642.81
2022-10-22T02:59:20.008Z,98646.00
2022-10-22T03:01:46.507Z,98656.13
2022-10-22T03:04:13.110Z,98657.28
2022-10-22T03:06:41.477Z,98661.25
2022-10-22T03:09:07.982Z,98664.00
2022-10-22T03:11:34.547Z,98667.88
2022-10-22T03:14:01.057Z,98670.97
2022-10-22T03:16:27.567Z,98669.03
2022-10-22T03:18:54.081Z,98660.38
2022-10-22T03:21:28.357Z,98662.31
2022-10-22T03:23:56.724Z,98660.38
2022-10-22T03:26:24.454Z,98670.47
2022-10-22T03:28:51.448Z,98666.09
2022-10-22T03:31:17.955Z,98682.84
2022-10-22T03:33:44.563Z,98673.84
2022-10-22T03:36:11.294Z,98682.00
2022-10-22T03:38:39.460Z,98681.13
2022-10-22T03:41:07.688Z,98684.22
2022-10-22T03:43:35.471Z,98672.13
2022-10-22T03:46:02.012Z,98674.50
2022-10-22T03:48:28.521Z,98676.88
2022-10-22T03:50:55.097Z,98684.66
2022-10-22T03:53:21.753Z,98700.38
2022-10-22T03:55:48.377Z,98705.88
2022-10-22T03:58:16.337Z,98705.19
2022-10-22T04:00:43.044Z,98707.56
2022-10-22T04:03:09.616Z,98704.13
2022-10-22T04:05:36.134Z,98715.47
2022-10-22T04:08:02.854Z,98716.69
2022-10-22T04:10:29.417Z,98715.56
2022-10-22T04:12:55.988Z,98712.03
2022-10-22T04:15:23.976Z,98710.06
2022-10-22T04:17:50.512Z,98717.50
2022-10-22T04:20:17.254Z,98715.91
2022-10-22T04:22:43.757Z,98719.88
2022-10-22T04:25:10.391Z,98719.09
2022-10-22T04:27:37.288Z,98716.69
2022-10-22T04:30:04.652Z,98720.59
2022-10-22T04:32:32.562Z,98720.59
2022-10-22T04:34:59.074Z,98713.13
2022-10-22T04:37:25.605Z,98720.53
2022-10-22T04:39:52.114Z,98724.47
2022-10-22T04:42:18.725Z,98719.00
2022-10-22T04:44:45.237Z,98713.16
2022-10-22T04:47:11.907Z,98699.13
2022-10-22T04:49:40.377Z,98705.41
2022-10-22T04:52:06.870Z,98696.41
2022-10-22T04:54:33.404Z,98699.94
2022-10-22T04:57:00.173Z,98704.97
2022-10-22T04:59:26.717Z,98709.72
2022-10-22T05:01:53.257Z,98704.59
2022-10-22T05:04:20.049Z,98696.75
2022-10-22T05:06:47.891Z,98694.38
2022-10-22T05:09:17.056Z,98695.13
2022-10-22T05:11:45.744Z,98699.84
2022-10-22T05:14:12.738Z,98702.97
2022-10-22T05:16:39.440Z,98690.44
2022-10-22T05:19:07.205Z,98690.78
2022-10-22T05:21:34.283Z,98696.63
2022-10-22T05:24:02.164Z,98696.53
2022-10-22T05:26:29.450Z,98699.66
2022-10-22T05:28:56.344Z,98692.94
2022-10-22T05:31:23.676Z,98690.47
2022-10-22T05:33:50.269Z,98698.19
2022-10-22T05:36:18.701Z,98703.56
2022-10-22T05:38:45.963Z,98705.38
2022-10-22T05:41:15.881Z,98710.78
2022-10-22T05:43:42.675Z,98708.41
2022-10-22T05:46:10.760Z,98718.91
2022-10-22T05:48:37.819Z,98730.19
2022-10-22T05:51:05.704Z,98734.50
2022-10-22T05:53:32.990Z,98745.53
2022-10-22T05:56:03.904Z,98757.63
2022-10-22T05:58:32.448Z,98760.44
2022-10-22T06:01:03.534Z,98770.81
2022-10-22T06:03:30.100Z,98770.47
2022-10-22T06:05:56.644Z,98780.69
2022-10-22T06:08:23.156Z,98784.94
2022-10-22T06:10:49.686Z,98794.72
2022-10-22T06:13:16.246Z,98801.00
2022-10-22T06:15:44.116Z,98802.94
2022-10-22T06:18:10.858Z,98808.06
2022-10-22T06:20:37.649Z,98811.25
2022-10-22T06:23:04.155Z,98811.25
2022-10-22T06:25:30.638Z,98815.81
2022-10-22T06:27:57.271Z,98817.31
2022-10-22T06:30:23.799Z,98823.94
2022-10-22T06:32:51.710Z,98825.81
2022-10-22T06:35:18.259Z,98829.25
2022-10-22T06:37:44.933Z,98832.25
2022-10-22T06:40:12.565Z,98839.22
2022-10-22T06:42:39.410Z,98845.41
2022-10-22T06:45:07.912Z,98861.38
2022-10-22T06:47:34.463Z,98853.53
2022-10-22T06:50:02.473Z,98854.75
2022-10-22T06:52:28.959Z,98858.72
2022-10-22T06:54:55.588Z,98862.34
2022-10-22T06:57:22.097Z,98864.00
2022-10-22T06:59:48.617Z,98862.50
2022-10-22T07:02:15.165Z,98873.81
2022-10-22T07:04:41.786Z,98868.69
2022-10-22T07:07:09.661Z,98879.63
2022-10-22T07:09:36.191Z,98872.16
2022-10-22T07:12:02.715Z,98873.19
2022-10-22T07:14:29.231Z,98879.72
2022-10-22T07:16:57.885Z,98878.75
2022-10-22T07:19:24.386Z,98878.28
2022-10-22T07:21:50.929Z,98888.94
2022-10-22T07:24:18.806Z,98890.41
2022-10-22T07:26:45.377Z,98886.41
2022-10-22T07:29:11.884Z,98887.81
2022-10-22T07:31:38.546Z,98886.31
2022-10-22T07:34:05.609Z,98877.34
2022-10-22T07:36:32.191Z,98889.19
2022-10-22T07:38:59.484Z,98883.00
2022-10-22T07:41:28.702Z,98885.78
2022-10-22T07:43:55.551Z,98888.97
2022-10-22T07:46:22.381Z,98896.53
2022-10-22T07:48:49.054Z,98904.06
2022-10-22T07:51:16.544Z,98902.16
2022-10-22T07:53:43.080Z,98904.53
2022-10-22T07:56:10.561Z,98914.72
2022-10-22T07:58:38.496Z,98917.44
2022-10-22T08:01:05.149Z,98922.53
2022-10-22T08:03:32.815Z,98927.13
2022-10-22T08:06:00.189Z,98924.81
2022-10-22T08:08:29.846Z,98929.16
2022-10-22T08:10:59.866Z,98926.75
2022-10-22T08:13:26.829Z,98933.75
2022-10-22T08:15:57.361Z,98933.81
2022-10-22T08:18:24.717Z,98933.81
2022-10-22T08:20:51.450Z,98938.94
2022-10-22T08:23:18.254Z,98949.53
2022-10-22T08:25:44.853Z,98946.44
2022-10-22T08:28:11.460Z,98946.78
2022-10-22T08:30:38.393Z,98948.38
2022-10-22T08:33:06.285Z,98945.91
2022-10-22T08:35:32.881Z,98948.78
2022-10-22T08:37:59.409Z,98948.06
2022-10-22T08:40:30.411Z,98957.31
2022-10-22T08:43:17.359Z,98953.56
2022-10-22T08:45:50.512Z,98964.97
2022-10-22T08:48:35.056Z,98962.50
2022-10-22T08:51:01.663Z,98964.16
2022-10-22T08:53:36.653Z,98970.00
2022-10-22T08:56:03.266Z,98966.53
2022-10-22T08:58:35.836Z,98970.34
2022-10-22T09:01:06.208Z,98969.41
2022-10-22T09:03:45.421Z,98962.03
2022-10-22T09:06:15.539Z,98968.66
2022-10-22T09:08:44.729Z,98962.47
2022-10-22T09:11:22.308Z,98961.00
2022-10-22T09:13:49.785Z,98962.94
2022-10-22T09:16:19.238Z,98965.75
2022-10-22T09:18:58.659Z,98970.44
2022-10-22T09:21:33.895Z,98977.97
2022-10-22T09:24:06.939Z,98965.97
2022-10-22T09:26:38.427Z,98971.50
2022-10-22T09:29:05.396Z,98976.44
2022-10-22T09:31:33.205Z,98974.94
2022-10-22T09:34:01.516Z,98993.47
2022-10-22T09:36:29.025Z,98983.00
2022-10-22T09:38:55.587Z,98974.75
2022-10-22T09:41:25.499Z,98973.31
2022-10-22T09:43:52.397Z,98985.00
2022-10-22T09:46:20.887Z,98982.63
2022-10-22T09:48:50.463Z,98981.22
2022-10-22T09:51:22.079Z,98984.03
2022-10-22T09:53:56.745Z,98980.63
2022-10-22T09:56:27.472Z,98985.28
2022-10-22T09:58:56.944Z,98992.03
2022-10-22T10:01:26.549Z,99000.47
2022-10-22T10:03:53.284Z,98998.22
2022-10-22T10:06:22.933Z,98997.84
2022-10-22T10:08:50.300Z,99011.63
2022-10-22T10:11:29.092Z,99014.88
2022-10-22T10:14:07.583Z,99006.63
2022-10-22T10:16:42.936Z,99013.75
2022-10-22T10:19:33.530Z,99014.09
2022-10-22T10:22:12.033Z,99012.31
2022-10-22T10:24:50.422Z,99009.16
2022-10-22T10:27:25.712Z,99017.16
2022-10-22T10:29:58.799Z,99016.31
2022-10-22T10:32:37.361Z,99006.50
2022-10-22T10:35:15.569Z,99017.81
2022-10-22T10:37:49.896Z,99015.44
2022-10-22T10:40:26.596Z,99013.06
2022-10-22T10:42:58.024Z,99014.22
2022-10-22T10:45:32.985Z,99005.34
2022-10-22T10:48:28.348Z,99006.53
2022-10-22T10:51:06.274Z,99003.31
2022-10-22T10:53:57.725Z,99000.47
2022-10-22T10:56:38.359Z,99005.75
2022-10-22T10:59:16.656Z,99016.94
2022-10-22T11:01:59.451Z,99021.16
2022-10-22T11:05:10.788Z,99013.63
2022-10-22T11:07:42.833Z,99021.94
2022-10-22T11:10:22.232Z,99022.78
2022-10-22T11:12:52.909Z,99021.28
2022-10-22T11:15:27.374Z,99027.94
2022-10-22T11:18:02.307Z,99026.78
2022-10-22T11:20:47.085Z,99020.03
2022-10-22T11:23:20.451Z,99023.91
2022-10-22T11:25:51.196Z,99033.19
2022-10-22T11:28:23.997Z,99021.53
2022-10-22T11:30:58.167Z,99021.56
2022-10-22T11:33:28.690Z,99031.09
2022-10-22T11:35:57.804Z,99024.66
2022-10-22T11:38:26.830Z,99021.75
2022-10-22T11:41:00.417Z,99018.97
2022-10-22T11:43:30.840Z,99015.09
2022-10-22T11:46:01.699Z,99016.28
2022-10-22T11:48:36.214Z,99002.88
2022-10-22T11:51:03.689Z,99009.16
2022-10-22T11:53:32.658Z,98996.19
2022-10-22T11:56:20.017Z,98999.31
2022-10-22T11:58:50.828Z,98997.75
2022-10-22T12:01:27.586Z,98998.56
2022-10-22T12:04:18.851Z,99002.47
2022-10-22T12:06:53.892Z,99005.25
2022-10-22T12:09:23.568Z,98998.53
2022-10-22T12:11:51.757Z,98994.16
2022-10-22T12:14:21.663Z,98986.94
2022-10-22T12:16:56.920Z,98985.25
2022-10-22T12:19:27.257Z,98990.16
2022-10-22T12:21:56.001Z,98989.06
2022-10-22T12:24:25.100Z,98994.19
2022-10-22T12:26:53.150Z,98982.31
2022-10-22T12:29:22.005Z,98981.13
2022-10-22T12:31:48.670Z,98997.72
2022-10-22T12:34:17.012Z,98999.31
2022-10-22T12:36:44.061Z,98999.31
2022-10-22T12:39:15.081Z,98994.19
2022-10-22T12:41:42.594Z,99008.81
2022-10-22T12:44:14.196Z,99002.09
2022-10-22T12:46:42.716Z,99018.28
2022-10-22T12:49:15.032Z,99006.06
2022-10-22T12:51:42.052Z,99009.59
2022-10-22T12:54:15.012Z,99012.75
2022-10-22T12:56:41.701Z,99010.00
2022-10-22T12:59:18.094Z,99015.09
2022-10-22T13:01:44.857Z,99009.84
2022-10-22T13:04:22.040Z,99011.22
2022-10-22T13:06:50.026Z,99015.38
2022-10-22T13:09:22.577Z,99007.75
2022-10-22T13:11:54.961Z,99021.63
2022-10-22T13:14:27.779Z,99024.63
2022-10-22T13:17:12.190Z,99000.47
2022-10-22T13:19:42.112Z,99015.13
2022-10-22T13:22:30.583Z,99003.41
2022-10-22T13:27:31.513Z,99016.94
2022-10-22T13:30:03.137Z,99010.25
2022-10-22T13:32:32.036Z,99001.97
2022-10-22T13:35:00.593Z,99021.25
2022-10-22T13:37:29.471Z,99014.59
2022-10-22T13:39:56.143Z,99023.66
2022-10-22T13:42:22.774Z,99033.75
2022-10-22T13:44:49.269Z,99036.13
2022-10-22T13:47:25.443Z,99040.69
2022-10-22T13:49:53.444Z,99033.13
2022-10-22T13:52:28.576Z,99042.91
2022-10-22T13:54:55.143Z,99042.00
2022-10-22T13:57:21.668Z,99035.94
2022-10-22T13:59:48.203Z,99033.16
2022-10-22T14:02:14.780Z,99042.84
2022-10-22T14:04:42.828Z,99036.31
2022-10-22T14:07:13.259Z,99039.44
2022-10-22T14:09:39.797Z,99032.53
2022-10-22T14:12:11.931Z,99032.94
2022-10-22T14:14:38.471Z,99033.31
2022-10-22T14:17:05.809Z,99030.19
2022-10-22T14:19:32.432Z,99033.81
2022-10-22T14:22:00.342Z,99022.91
2022-10-22T14:24:26.833Z,99019.41
2022-10-22T14:26:53.365Z,99022.50
2022-10-22T14:29:20.005Z,99014.47
2022-10-22T14:31:46.506Z,99021.34
2022-10-22T14:34:15.574Z,99014.66
2022-10-22T14:36:42.148Z,99011.41
2022-10-22T14:39:10.000Z,99027.06
2022-10-22T14:41:36.566Z,99025.72
2022-10-22T14:44:03.222Z,99029.28
2022-10-22T14:46:29.718Z,99027.88
2022-10-22T14:48:56.229Z,99025.16
2022-10-22T14:51:22.751Z,99020.50
2022-10-22T14:53:49.447Z,99024.91
2022-10-22T14:56:19.320Z,99029.56
2022-10-22T14:58:45.885Z,99035.28
2022-10-22T15:01:12.902Z,99039.66
2022-10-22T15:03:39.517Z,99040.72
2022-10-22T15:06:06.925Z,99050.13
2022-10-22T15:08:33.729Z,99059.56
2022-10-22T15:11:01.520Z,99056.44
2022-10-22T15:13:30.364Z,99059.09
2022-10-22T15:15:58.010Z,99061.34
2022-10-22T15:18:25.558Z,99067.16
2022-10-22T15:20:56.638Z,99060.16
2022-10-22T15:23:23.135Z,99064.09
2022-10-22T15:25:49.676Z,99068.66
2022-10-22T15:28:16.184Z,99067.28
2022-10-22T15:30:44.160Z,99072.81
2022-10-22T15:33:10.658Z,99063.38
2022-10-22T15:35:37.368Z,99075.72
2022-10-22T15:38:03.896Z,99079.31
2022-10-22T15:40:30.392Z,99073.97
2022-10-22T15:42:57.012Z,99080.31
2022-10-22T15:45:23.513Z,99083.63
2022-10-22T15:47:51.412Z,99082.56
2022-10-22T15:50:18.246Z,99100.16
2022-10-22T15:52:44.792Z,99093.69
2022-10-22T15:57:43.316Z,99101.50
2022-10-22T16:00:11.285Z,99106.94
2022-10-22T16:02:37.913Z,99097.91
2022-10-22T16:05:06.989Z,99103.75
2022-10-22T16:07:33.642Z,99100.53
2022-10-22T16:10:00.155Z,99094.69
2022-10-22T16:12:26.666Z,99099.72
2022-10-22T16:14:53.223Z,99100.88
2022-10-22T16:17:19.768Z,99111.38
2022-10-22T16:19:47.821Z,99105.38
2022-10-22T16:22:15.759Z,99098.56
2022-10-22T16:24:43.124Z,99107.97
2022-10-22T16:27:10.128Z,99102.41
2022-10-22T16:29:37.498Z,99105.88
2022-10-22T16:32:04.364Z,99107.41
2022-10-22T16:34:30.855Z,99098.28
2022-10-22T16:36:57.506Z,99108.34
2022-10-22T16:39:25.455Z,99106.25
2022-10-22T16:41:51.981Z,99115.56
2022-10-22T16:44:18.581Z,99107.63
2022-10-22T16:46:45.362Z,99110.56
2022-10-22T16:49:12.194Z,99104.50
2022-10-22T16:51:39.221Z,99106.75
2022-10-22T16:54:08.414Z,99117.47
2022-10-22T16:56:39.682Z,99114.59
2022-10-22T16:59:06.543Z,99108.56
2022-10-22T17:01:37.871Z,99120.53
2022-10-22T17:04:07.069Z,99129.03
2022-10-22T17:06:33.592Z,99130.53
2022-10-22T17:09:00.289Z,99132.38
2022-10-22T17:11:26.877Z,99142.94
2022-10-22T17:13:54.797Z,99143.34
2022-10-22T17:16:23.489Z,99138.66
2022-10-22T17:18:50.003Z,99142.53
2022-10-22T17:21:17.551Z,99148.81
2022-10-22T17:23:44.437Z,99141.41
2022-10-22T17:26:16.043Z,99142.53
2022-10-22T17:28:42.844Z,99136.81
2022-10-22T17:31:16.943Z,99139.56
2022-10-22T17:33:43.957Z,99142.63
2022-10-22T17:36:11.305Z,99145.38
2022-10-22T17:38:38.541Z,99141.06
2022-10-22T17:41:06.936Z,99142.94
2022-10-22T17:43:36.024Z,99147.50
2022-10-22T17:46:04.208Z,99149.59
2022-10-22T17:48:32.297Z,99146.34
2022-10-22T17:50:59.410Z,99146.25
2022-10-22T17:53:26.437Z,99150.75
2022-10-22T17:55:59.277Z,99147.41
2022-10-22T17:58:25.809Z,99146.59
2022-10-22T18:00:52.490Z,99156.91
2022-10-22T18:03:19.009Z,99162.56
2022-10-22T18:05:46.889Z,99154.38
2022-10-22T18:08:13.408Z,99164.81
2022-10-22T18:10:40.619Z,99161.84
2022-10-22T18:13:07.136Z,99161.75
2022-10-22T18:15:33.805Z,99162.34
2022-10-22T18:18:00.311Z,99176.97
2022-10-22T18:20:26.867Z,99173.47
2022-10-22T18:22:55.205Z,99182.38
2022-10-22T18:25:22.268Z,99188.28
2022-10-22T18:27:48.836Z,99183.63
2022-10-22T18:30:15.946Z,99185.69
2022-10-22T18:32:42.558Z,99181.50
2022-10-22T18:35:09.290Z,99182.38
2022-10-22T18:37:35.951Z,99184.56
2022-10-22T18:40:05.799Z,99189.34
2022-10-22T18:42:36.645Z,99188.53
2022-10-22T18:45:06.891Z,99182.75
2022-10-22T18:47:33.455Z,99185.09
2022-10-22T18:49:59.975Z,99185.53
2022-10-22T18:52:26.480Z,99182.09
2022-10-22T18:54:53.005Z,99186.19
2022-10-22T18:57:20.865Z,99186.41
2022-10-22T18:59:47.402Z,99188.22
2022-10-22T19:02:13.891Z,99184.41
2022-10-22T19:04:40.520Z,99187.34
2022-10-22T19:07:07.058Z,99183.22
2022-10-22T19:09:33.981Z,99181.16
2022-10-22T19:12:01.089Z,99178.63
2022-10-22T19:14:28.942Z,99187.50
2022-10-22T19:16:55.486Z,99188.50
2022-10-22T19:19:22.463Z,99190.63
2022-10-22T19:21:49.538Z,99184.94
2022-10-22T19:24:17.697Z,99197.28
2022-10-22T19:26:44.911Z,99195.44
2022-10-22T19:29:11.458Z,99204.16
2022-10-22T19:31:39.387Z,99203.84
2022-10-22T19:34:06.033Z,99192.03
2022-10-22T19:36:32.803Z,99197.00
2022-10-22T19:39:02.722Z,99198.13
2022-10-22T19:41:33.542Z,99194.75
2022-10-22T19:44:00.634Z,99201.81
2022-10-22T19:46:28.943Z,99200.53
2022-10-22T19:48:56.815Z,99201.66
2022-10-22T19:51:25.476Z,99216.09
2022-10-22T19:53:57.451Z,99207.66
2022-10-22T19:56:23.963Z,99213.28
2022-10-22T19:58:50.468Z,99208.81
2022-10-22T20:01:18.440Z,99208.03
2022-10-22T20:03:45.239Z,99209.34
2022-10-22T20:06:14.836Z,99198.16
2022-10-22T20:08:41.443Z,99201.09
2022-10-22T20:11:10.580Z,99197.41
2022-10-22T20:16:09.565Z,99196.53
2022-10-22T20:18:36.720Z,99202.28
2022-10-22T20:21:04.268Z,99191.91
2022-10-22T20:23:32.546Z,99195.28
2022-10-22T20:25:59.275Z,99192.75
2022-10-22T20:28:25.905Z,99192.94
2022-10-22T20:30:52.453Z,99198.25
2022-10-22T20:33:18.995Z,99211.50
2022-10-22T20:35:45.494Z,99202.88
2022-10-22T20:38:14.776Z,99207.53
2022-10-22T20:40:42.642Z,99200.81
2022-10-22T20:43:11.702Z,99198.41
2022-10-22T20:45:38.995Z,99209.94
2022-10-22T20:48:05.984Z,99217.66
2022-10-22T20:50:33.129Z,99216.34
2022-10-22T20:52:59.712Z,99216.97
2022-10-22T20:55:26.848Z,99212.19
2022-10-22T20:57:55.195Z,99215.25
2022-10-22T21:00:21.735Z,99216.50
2022-10-22T21:02:48.380Z,99225.81
2022-10-22T21:05:14.969Z,99217.28
2022-10-22T21:07:41.760Z,99223.22
2022-10-22T21:10:09.008Z,99223.22
2022-10-22T21:12:35.715Z,99224.00
2022-10-22T21:15:04.625Z,99224.34
2022-10-22T21:17:33.243Z,99220.00
2022-10-22T21:19:59.985Z,99221.78
2022-10-22T21:22:26.732Z,99218.88
2022-10-22T21:24:53.265Z,99221.47
2022-10-22T21:27:24.412Z,99213.97
2022-10-22T21:29:50.940Z,99219.25
2022-10-22T21:32:18.815Z,99221.63
2022-10-22T21:34:45.353Z,99213.16
2022-10-22T21:37:11.997Z,99211.06
2022-10-22T21:39:41.947Z,99211.06
2022-10-22T21:42:08.835Z,99214.47
2022-10-22T21:44:35.376Z,99213.00
2022-10-22T21:47:01.896Z,99214.16
2022-10-22T21:49:29.992Z,99213.34
2022-10-22T21:51:56.638Z,99210.13
2022-10-22T21:54:23.322Z,99208.53
2022-10-22T21:56:49.824Z,99210.63
2022-10-22T21:59:16.439Z,99204.38
2022-10-22T22:01:43.131Z,99203.09
2022-10-22T22:04:09.731Z,99196.38
2022-10-22T22:06:38.224Z,99199.09
2022-10-22T22:09:05.552Z,99199.91
2022-10-22T22:11:32.233Z,99197.97
2022-10-22T22:13:59.333Z,99194.78
2022-10-22T22:16:28.685Z,99202.94
2022-10-22T22:18:56.278Z,99204.53
2022-10-22T22:21:22.870Z,99194.78
2022-10-22T22:23:51.187Z,99199.41
2022-10-22T22:26:25.207Z,99200.88
2022-10-22T22:28:55.057Z,99198.78
2022-10-22T22:31:25.727Z,99206.16
2022-10-22T22:33:57.759Z,99208.56
2022-10-22T22:36:24.317Z,99215.13
2022-10-22T22:38:55.389Z,99204.56
2022-10-22T22:41:22.199Z,99205.69
2022-10-22T22:43:48.786Z,99201.34
2022-10-22T22:46:15.435Z,99202.50
2022-10-22T22:48:41.935Z,99197.38
2022-10-22T22:51:09.929Z,99204.75
2022-10-22T22:53:36.591Z,99194.19
2022-10-22T22:56:07.975Z,99184.41
2022-10-22T22:58:34.760Z,99179.28
2022-10-22T23:01:23.256Z,99176.44
2022-10-22T23:03:55.833Z,99170.84
2022-10-22T23:06:22.771Z,99188.91
2022-10-22T23:08:50.567Z,99186.84
2022-10-22T23:11:20.015Z,99184.94
2022-10-22T23:13:47.181Z,99182.53
2022-10-22T23:16:15.748Z,99179.50
2022-10-22T23:18:42.745Z,99176.28
2022-10-22T23:21:14.000Z,99174.38
2022-10-22T23:23:43.139Z,99180.44
2022-10-22T23:26:11.581Z,99177.59
2022-10-22T23:28:39.945Z,99186.38
2022-10-22T23:31:06.721Z,99175.81
2022-10-22T23:33:33.412Z,99170.56
2022-10-22T23:36:00.995Z,99168.16
2022-10-22T23:38:27.537Z,99171.69
2022-10-22T23:40:54.602Z,99175.50
2022-10-22T23:43:21.128Z,99177.75
2022-10-22T23:45:48.981Z,99179.19
2022-10-22T23:48:15.600Z,99173.91
2022-10-22T23:50:42.122Z,99173.91
2022-10-22T23:53:08.689Z,99169.13
2022-10-22T23:55:36.961Z,99171.34
2022-10-22T23:58:03.609Z,99173.91
